createdAt,value
2018-06-12T00:01:05.681Z,18.00
2018-06-12T00:03:33.908Z,17.94
2018-06-12T00:06:02.122Z,17.91
2018-06-12T00:08:30.361Z,17.85
2018-06-12T00:10:58.616Z,17.83
2018-06-12T00:13:26.779Z,17.80
2018-06-12T00:15:54.988Z,17.79
2018-06-12T00:18:23.218Z,17.78
2018-06-12T00:20:51.504Z,17.82
2018-06-12T00:23:19.698Z,17.83
2018-06-12T00:25:47.839Z,17.74
2018-06-12T00:28:16.110Z,17.70
2018-06-12T00:30:44.440Z,17.63
2018-06-12T00:33:12.848Z,17.59
2018-06-12T00:35:41.019Z,17.59
2018-06-12T00:38:09.232Z,17.61
2018-06-12T00:40:37.492Z,17.56
2018-06-12T00:43:05.693Z,17.53
2018-06-12T00:45:33.907Z,17.49
2018-06-12T00:48:02.115Z,17.41
2018-06-12T00:50:30.352Z,17.31
2018-06-12T00:52:58.591Z,17.27
2018-06-12T00:55:26.828Z,17.23
2018-06-12T00:57:55.365Z,17.21
2018-06-12T01:00:23.568Z,17.16
2018-06-12T01:02:51.745Z,17.11
2018-06-12T01:05:19.972Z,17.08
2018-06-12T01:07:48.223Z,17.02
2018-06-12T01:10:16.459Z,16.85
2018-06-12T01:12:44.698Z,16.74
2018-06-12T01:15:12.951Z,16.69
2018-06-12T01:17:41.213Z,16.64
2018-06-12T01:20:09.391Z,16.59
2018-06-12T01:22:37.633Z,16.57
2018-06-12T01:25:05.924Z,16.58
2018-06-12T01:27:34.135Z,16.48
2018-06-12T01:30:02.312Z,16.41
2018-06-12T01:32:30.511Z,16.30
2018-06-12T01:34:58.751Z,16.22
2018-06-12T01:37:26.962Z,16.18
2018-06-12T01:39:55.191Z,16.17
2018-06-12T01:42:23.734Z,16.12
2018-06-12T01:44:51.981Z,16.08
2018-06-12T01:47:20.386Z,16.02
2018-06-12T01:49:48.620Z,15.98
2018-06-12T01:52:16.855Z,15.93
2018-06-12T01:54:45.053Z,15.90
2018-06-12T01:57:13.299Z,15.92
2018-06-12T01:59:41.487Z,15.89
2018-06-12T02:02:09.679Z,15.88
2018-06-12T02:04:37.811Z,15.93
2018-06-12T02:07:06.021Z,15.92
2018-06-12T02:09:34.347Z,15.87
2018-06-12T02:12:02.580Z,15.88
2018-06-12T02:14:30.837Z,15.86
2018-06-12T02:16:59.111Z,15.90
2018-06-12T02:19:27.343Z,15.93
2018-06-12T02:21:55.706Z,15.98
2018-06-12T02:24:23.881Z,16.00
2018-06-12T02:26:52.157Z,16.03
2018-06-12T02:29:20.424Z,16.05
2018-06-12T02:31:48.616Z,16.07
2018-06-12T02:34:17.055Z,16.06
2018-06-12T02:36:45.326Z,16.05
2018-06-12T02:39:13.572Z,16.09
2018-06-12T02:41:41.818Z,16.11
2018-06-12T02:44:10.037Z,16.08
2018-06-12T02:46:38.212Z,16.04
2018-06-12T02:49:06.642Z,15.92
2018-06-12T02:51:34.930Z,15.90
2018-06-12T02:54:03.126Z,15.88
2018-06-12T02:56:31.333Z,15.75
2018-06-12T02:58:59.587Z,15.70
2018-06-12T03:01:27.809Z,15.69
2018-06-12T03:03:55.993Z,15.66
2018-06-12T03:06:24.196Z,15.56
2018-06-12T03:08:52.450Z,15.50
2018-06-12T03:11:20.732Z,15.45
2018-06-12T03:13:48.960Z,15.53
2018-06-12T03:16:17.325Z,15.67
2018-06-12T03:18:45.514Z,15.74
2018-06-12T03:21:13.718Z,15.83
2018-06-12T03:23:41.923Z,15.91
2018-06-12T03:26:10.108Z,15.86
2018-06-12T03:28:38.289Z,15.79
2018-06-12T03:31:06.509Z,15.75
2018-06-12T03:33:34.741Z,15.76
2018-06-12T03:36:02.916Z,15.71
2018-06-12T03:38:31.123Z,15.72
2018-06-12T03:40:59.392Z,15.67
2018-06-12T03:43:27.592Z,15.77
2018-06-12T03:45:55.862Z,15.92
2018-06-12T03:48:24.087Z,15.85
2018-06-12T03:50:52.270Z,15.71
2018-06-12T03:53:20.527Z,15.64
2018-06-12T03:55:48.771Z,15.69
2018-06-12T03:58:16.993Z,15.62
2018-06-12T04:00:45.180Z,15.52
2018-06-12T04:03:13.381Z,15.55
2018-06-12T04:05:41.590Z,15.74
2018-06-12T04:08:10.305Z,16.93
2018-06-12T04:10:38.536Z,18.16
2018-06-12T04:13:06.986Z,18.19
2018-06-12T04:15:35.201Z,17.45
2018-06-12T04:18:03.396Z,16.53
2018-06-12T04:23:06.113Z,16.22
2018-06-12T04:25:34.333Z,18.07
2018-06-12T04:28:02.509Z,19.57
2018-06-12T04:30:30.737Z,20.10
2018-06-12T04:32:59.041Z,19.57
2018-06-12T04:35:27.267Z,18.57
2018-06-12T04:37:55.529Z,17.73
2018-06-12T04:40:23.739Z,16.83
2018-06-12T04:42:51.962Z,16.56
2018-06-12T04:45:20.172Z,16.26
2018-06-12T04:47:48.374Z,16.22
2018-06-12T04:50:16.622Z,16.06
2018-06-12T04:52:44.832Z,15.96
2018-06-12T04:55:13.065Z,15.77
2018-06-12T04:57:41.351Z,15.86
2018-06-12T05:00:09.571Z,15.92
2018-06-12T05:02:37.807Z,16.01
2018-06-12T05:05:06.052Z,16.18
2018-06-12T05:07:34.234Z,16.36
2018-06-12T05:10:02.797Z,16.24
2018-06-12T05:12:31.064Z,16.22
2018-06-12T05:14:59.375Z,16.40
2018-06-12T05:17:27.563Z,16.62
2018-06-12T05:19:55.883Z,16.68
2018-06-12T05:22:24.092Z,16.44
2018-06-12T05:24:52.312Z,16.43
2018-06-12T05:27:20.549Z,16.41
2018-06-12T05:29:48.881Z,16.45
2018-06-12T05:32:17.079Z,16.63
2018-06-12T05:34:45.285Z,16.79
2018-06-12T05:37:13.490Z,16.53
2018-06-12T05:39:41.707Z,16.43
2018-06-12T05:42:09.859Z,16.37
2018-06-12T05:44:38.099Z,16.36
2018-06-12T05:47:06.357Z,16.45
2018-06-12T05:49:34.608Z,16.69
2018-06-12T05:52:02.834Z,16.99
2018-06-12T05:54:31.021Z,16.72
2018-06-12T05:56:59.267Z,16.47
2018-06-12T05:59:27.600Z,16.36
2018-06-12T06:01:55.792Z,16.25
2018-06-12T06:04:24.030Z,16.42
2018-06-12T06:06:52.270Z,16.89
2018-06-12T06:09:20.476Z,17.19
2018-06-12T06:11:48.703Z,17.16
2018-06-12T06:14:16.985Z,17.19
2018-06-12T06:16:45.249Z,16.99
2018-06-12T06:19:13.521Z,17.15
2018-06-12T06:21:41.832Z,17.51
2018-06-12T06:24:10.117Z,17.60
2018-06-12T06:26:38.669Z,17.77
2018-06-12T06:29:06.939Z,17.94
2018-06-12T06:31:35.238Z,17.52
2018-06-12T06:34:03.525Z,17.62
2018-06-12T06:36:31.776Z,17.54
2018-06-12T06:39:00.079Z,17.45
2018-06-12T06:41:28.320Z,17.16
2018-06-12T06:43:56.580Z,17.04
2018-06-12T06:46:24.807Z,17.14
2018-06-12T06:48:53.025Z,17.45
2018-06-12T06:51:21.239Z,17.18
2018-06-12T06:53:49.455Z,16.98
2018-06-12T06:56:17.752Z,16.88
2018-06-12T06:58:46.009Z,16.81
2018-06-12T07:01:14.201Z,16.92
2018-06-12T07:03:42.389Z,17.06
2018-06-12T07:06:10.613Z,17.10
2018-06-12T07:08:38.883Z,17.13
2018-06-12T07:11:07.120Z,17.00
2018-06-12T07:13:35.343Z,17.27
2018-06-12T07:16:03.598Z,17.82
2018-06-12T07:18:31.937Z,17.96
2018-06-12T07:21:05.825Z,17.96
2018-06-12T07:23:34.309Z,17.97
2018-06-12T07:26:02.789Z,17.52
2018-06-12T07:28:31.058Z,17.60
2018-06-12T07:30:59.447Z,17.38
2018-06-12T07:33:27.727Z,17.14
2018-06-12T07:35:55.884Z,17.18
2018-06-12T07:38:24.173Z,17.27
2018-06-12T07:40:52.402Z,16.94
2018-06-12T07:43:20.669Z,16.92
2018-06-12T07:45:48.837Z,17.00
2018-06-12T07:48:17.032Z,17.04
2018-06-12T07:50:45.293Z,16.98
2018-06-12T07:53:13.844Z,16.92
2018-06-12T07:55:42.027Z,16.62
2018-06-12T07:58:10.257Z,16.69
2018-06-12T08:00:38.420Z,16.78
2018-06-12T08:03:06.648Z,16.88
2018-06-12T08:05:34.845Z,17.12
2018-06-12T08:08:03.047Z,17.54
2018-06-12T08:10:31.260Z,17.76
2018-06-12T08:12:59.692Z,17.89
2018-06-12T08:15:27.781Z,17.79
2018-06-12T08:17:56.036Z,17.83
2018-06-12T08:20:24.251Z,17.97
2018-06-12T08:22:52.447Z,17.95
2018-06-12T08:25:20.655Z,17.85
2018-06-12T08:27:48.885Z,18.16
2018-06-12T08:30:17.167Z,18.46
2018-06-12T08:32:45.365Z,18.20
2018-06-12T08:35:13.580Z,18.06
2018-06-12T08:37:41.794Z,18.52
2018-06-12T08:40:09.962Z,18.62
2018-06-12T08:42:38.128Z,18.60
2018-06-12T08:45:06.348Z,18.38
2018-06-12T08:47:34.566Z,18.05
2018-06-12T08:50:02.803Z,18.29
2018-06-12T08:52:31.162Z,18.45
2018-06-12T08:54:59.533Z,18.15
2018-06-12T08:57:27.767Z,17.91
2018-06-12T08:59:56.293Z,18.27
2018-06-12T09:02:24.534Z,18.53
2018-06-12T09:04:52.830Z,18.59
2018-06-12T09:07:20.999Z,18.57
2018-06-12T09:09:49.192Z,18.56
2018-06-12T09:12:17.431Z,18.34
2018-06-12T09:14:45.649Z,18.55
2018-06-12T09:17:14.541Z,18.63
2018-06-12T09:19:42.789Z,18.69
2018-06-12T09:22:11.056Z,18.69
2018-06-12T09:24:39.341Z,18.50
2018-06-12T09:27:07.558Z,18.22
2018-06-12T09:29:35.750Z,18.44
2018-06-12T09:32:04.416Z,18.71
2018-06-12T09:34:32.714Z,18.91
2018-06-12T09:37:01.037Z,18.77
2018-06-12T09:39:29.255Z,18.51
2018-06-12T09:41:57.457Z,18.25
2018-06-12T09:44:25.633Z,18.58
2018-06-12T09:46:53.857Z,19.01
2018-06-12T09:49:22.128Z,19.20
2018-06-12T09:51:50.420Z,19.36
2018-06-12T09:54:18.867Z,19.37
2018-06-12T09:56:47.143Z,19.19
2018-06-12T09:59:15.370Z,19.25
2018-06-12T10:01:43.575Z,19.15
2018-06-12T10:04:11.804Z,19.25
2018-06-12T10:06:40.036Z,19.41
2018-06-12T10:09:08.364Z,19.23
2018-06-12T10:11:36.638Z,19.35
2018-06-12T10:14:04.871Z,19.27
2018-06-12T10:16:33.101Z,19.07
2018-06-12T10:19:01.418Z,19.01
2018-06-12T10:21:29.590Z,19.10
2018-06-12T10:23:57.853Z,19.24
2018-06-12T10:26:26.040Z,19.03
2018-06-12T10:28:54.268Z,19.11
2018-06-12T10:31:22.511Z,19.20
2018-06-12T10:33:50.745Z,19.25
2018-06-12T10:36:18.945Z,19.28
2018-06-12T10:38:47.171Z,19.30
2018-06-12T10:41:15.469Z,19.45
2018-06-12T10:43:43.701Z,19.41
2018-06-12T10:46:11.980Z,19.47
2018-06-12T10:48:40.220Z,19.49
2018-06-12T10:51:08.725Z,19.75
2018-06-12T10:53:36.978Z,19.94
2018-06-12T10:56:05.221Z,19.93
2018-06-12T10:58:33.409Z,19.71
2018-06-12T11:01:01.601Z,19.53
2018-06-12T11:03:29.843Z,19.49
2018-06-12T11:05:58.105Z,19.67
2018-06-12T11:08:33.291Z,19.71
2018-06-12T11:11:01.453Z,19.46
2018-06-12T11:13:29.729Z,19.31
2018-06-12T11:15:57.956Z,19.42
2018-06-12T11:18:26.190Z,19.70
2018-06-12T11:20:54.446Z,19.76
2018-06-12T11:23:23.189Z,19.71
2018-06-12T11:25:51.384Z,19.54
2018-06-12T11:28:19.561Z,19.37
2018-06-12T11:30:47.758Z,19.33
2018-06-12T11:33:15.989Z,19.31
2018-06-12T11:35:44.244Z,19.15
2018-06-12T11:38:12.453Z,19.33
2018-06-12T11:40:40.672Z,19.85
2018-06-12T11:43:08.961Z,19.93
2018-06-12T11:45:37.207Z,19.71
2018-06-12T11:48:05.873Z,19.85
2018-06-12T11:50:34.271Z,20.17
2018-06-12T11:53:02.489Z,20.15
2018-06-12T11:55:30.720Z,20.20
2018-06-12T11:57:58.914Z,20.21
2018-06-12T12:00:27.209Z,20.10
2018-06-12T12:02:55.418Z,20.10
2018-06-12T12:05:23.604Z,19.89
2018-06-12T12:07:51.839Z,19.81
2018-06-12T12:10:20.006Z,20.11
2018-06-12T12:12:48.224Z,20.21
2018-06-12T12:15:16.466Z,20.12
2018-06-12T12:17:44.632Z,19.89
2018-06-12T12:20:12.815Z,19.85
2018-06-12T12:22:41.083Z,20.16
2018-06-12T12:25:09.387Z,20.41
2018-06-12T12:27:37.666Z,20.72
2018-06-12T12:30:06.004Z,20.84
2018-06-12T12:32:34.194Z,21.05
2018-06-12T12:35:02.410Z,20.90
2018-06-12T12:37:30.601Z,21.09
2018-06-12T12:39:58.836Z,21.16
2018-06-12T12:42:27.025Z,21.40
2018-06-12T12:44:55.253Z,21.33
2018-06-12T12:47:23.527Z,21.21
2018-06-12T12:49:52.020Z,21.19
2018-06-12T12:52:20.274Z,21.11
2018-06-12T12:54:48.580Z,21.02
2018-06-12T12:57:16.811Z,20.72
2018-06-12T12:59:45.104Z,20.76
2018-06-12T13:02:13.388Z,21.00
2018-06-12T13:04:41.588Z,21.12
2018-06-12T13:07:09.821Z,20.94
2018-06-12T13:09:38.131Z,21.24
2018-06-12T13:12:06.361Z,21.35
2018-06-12T13:14:34.556Z,21.17
2018-06-12T13:17:02.771Z,21.12
2018-06-12T13:19:30.944Z,21.20
2018-06-12T13:21:59.162Z,21.47
2018-06-12T13:24:27.417Z,21.84
2018-06-12T13:26:55.690Z,22.11
2018-06-12T13:29:23.915Z,22.00
2018-06-12T13:31:52.163Z,21.86
2018-06-12T13:34:20.376Z,21.63
2018-06-12T13:36:48.617Z,21.55
2018-06-12T13:39:16.843Z,21.40
2018-06-12T13:41:45.065Z,21.35
2018-06-12T13:44:13.375Z,21.54
2018-06-12T13:46:41.651Z,21.92
2018-06-12T13:49:09.837Z,22.12
2018-06-12T13:51:38.075Z,21.98
2018-06-12T13:54:06.231Z,21.89
2018-06-12T13:56:34.481Z,21.88
2018-06-12T13:59:02.692Z,21.68
2018-06-12T14:01:30.909Z,21.83
2018-06-12T14:03:59.148Z,21.94
2018-06-12T14:06:27.368Z,21.94
2018-06-12T14:08:55.577Z,21.95
2018-06-12T14:11:23.807Z,21.90
2018-06-12T14:13:52.040Z,22.29
2018-06-12T14:16:20.261Z,22.33
2018-06-12T14:18:48.490Z,22.22
2018-06-12T14:21:16.733Z,22.33
2018-06-12T14:23:44.970Z,22.10
2018-06-12T14:26:13.152Z,22.30
2018-06-12T14:28:41.401Z,22.24
2018-06-12T14:31:10.504Z,22.13
2018-06-12T14:33:38.693Z,22.13
2018-06-12T14:36:06.940Z,22.41
2018-06-12T14:38:35.175Z,22.68
2018-06-12T14:41:03.432Z,22.24
2018-06-12T14:43:31.598Z,22.23
2018-06-12T14:45:59.767Z,22.60
2018-06-12T14:48:28.019Z,22.38
2018-06-12T14:50:56.261Z,22.24
2018-06-12T14:53:24.529Z,22.39
2018-06-12T14:55:52.790Z,22.86
2018-06-12T14:58:21.005Z,23.59
2018-06-12T15:00:49.197Z,23.91
2018-06-12T15:03:17.395Z,24.10
2018-06-12T15:05:45.640Z,24.57
2018-06-12T15:08:13.869Z,25.60
2018-06-12T15:10:42.094Z,26.39
2018-06-12T15:13:10.312Z,26.61
2018-06-12T15:15:38.641Z,26.63
2018-06-12T15:18:06.869Z,26.72
2018-06-12T15:20:35.182Z,26.78
2018-06-12T15:23:03.366Z,26.66
2018-06-12T15:25:31.608Z,27.06
2018-06-12T15:27:59.811Z,25.75
2018-06-12T15:30:28.517Z,24.19
2018-06-12T15:32:56.709Z,25.12
2018-06-12T15:35:24.935Z,26.27
2018-06-12T15:37:53.148Z,26.96
2018-06-12T15:40:21.385Z,26.10
2018-06-12T15:42:49.590Z,25.38
2018-06-12T15:45:18.104Z,25.84
2018-06-12T15:47:46.398Z,25.96
2018-06-12T15:50:14.622Z,25.49
2018-06-12T15:52:42.893Z,24.28
2018-06-12T15:55:11.202Z,24.44
2018-06-12T15:57:39.431Z,24.23
2018-06-12T16:00:07.798Z,23.00
2018-06-12T16:02:36.069Z,23.54
2018-06-12T16:05:04.349Z,24.41
2018-06-12T16:07:32.628Z,26.14
2018-06-12T16:10:00.829Z,25.70
2018-06-12T16:12:29.089Z,24.35
2018-06-12T16:14:57.266Z,22.84
2018-06-12T16:17:25.484Z,21.95
2018-06-12T16:19:53.695Z,21.67
2018-06-12T16:22:21.906Z,21.45
2018-06-12T16:24:50.541Z,21.27
2018-06-12T16:27:18.757Z,21.23
2018-06-12T16:29:46.987Z,21.16
2018-06-12T16:32:15.213Z,21.17
2018-06-12T16:34:43.425Z,20.95
2018-06-12T16:37:11.659Z,20.91
2018-06-12T16:39:39.996Z,21.05
2018-06-12T16:42:08.271Z,21.09
2018-06-12T16:44:36.508Z,21.21
2018-06-12T16:47:04.727Z,21.14
2018-06-12T16:49:32.906Z,21.25
2018-06-12T16:52:01.217Z,21.20
2018-06-12T16:54:29.467Z,21.09
2018-06-12T16:56:57.720Z,20.96
2018-06-12T16:59:25.963Z,20.86
2018-06-12T17:01:54.400Z,20.82
2018-06-12T17:04:22.645Z,20.88
2018-06-12T17:06:51.179Z,20.79
2018-06-12T17:09:19.381Z,21.04
2018-06-12T17:11:47.667Z,21.13
2018-06-12T17:14:15.876Z,20.89
2018-06-12T17:16:44.109Z,20.82
2018-06-12T17:19:12.609Z,20.83
2018-06-12T17:21:40.866Z,20.86
2018-06-12T17:24:09.141Z,20.62
2018-06-12T17:26:37.288Z,20.49
2018-06-12T17:29:05.495Z,20.47
2018-06-12T17:31:33.732Z,20.45
2018-06-12T17:34:01.886Z,20.46
2018-06-12T17:36:30.455Z,20.47
2018-06-12T17:38:58.689Z,20.33
2018-06-12T17:41:26.933Z,20.21
2018-06-12T17:43:55.291Z,20.23
2018-06-12T17:46:23.464Z,20.17
2018-06-12T17:48:51.685Z,20.22
2018-06-12T17:51:19.983Z,20.21
2018-06-12T17:53:48.217Z,20.22
2018-06-12T17:56:16.435Z,20.25
2018-06-12T17:58:44.717Z,20.27
2018-06-12T18:01:12.924Z,20.26
2018-06-12T18:03:41.424Z,20.17
2018-06-12T18:06:09.899Z,20.15
2018-06-12T18:08:38.084Z,20.11
2018-06-12T18:11:06.517Z,20.08
2018-06-12T18:13:40.374Z,20.08
2018-06-12T18:16:08.607Z,20.07
2018-06-12T18:18:36.960Z,20.08
2018-06-12T18:21:05.205Z,20.06
2018-06-12T18:23:33.647Z,20.03
2018-06-12T18:26:01.987Z,19.98
2018-06-12T18:28:30.399Z,19.96
2018-06-12T18:30:58.707Z,19.85
2018-06-12T18:33:27.071Z,19.70
2018-06-12T18:35:55.206Z,19.60
2018-06-12T18:38:23.756Z,19.59
2018-06-12T18:40:52.021Z,19.47
2018-06-12T18:43:20.241Z,19.36
2018-06-12T18:45:48.427Z,19.31
2018-06-12T18:48:16.659Z,19.22
2018-06-12T18:50:45.251Z,19.30
2018-06-12T18:53:13.461Z,19.28
2018-06-12T18:55:41.861Z,19.22
2018-06-12T18:58:10.097Z,19.15
2018-06-12T19:00:38.364Z,19.20
2018-06-12T19:03:06.571Z,19.11
2018-06-12T19:05:34.799Z,19.11
2018-06-12T19:08:03.138Z,18.94
2018-06-12T19:10:31.352Z,18.92
2018-06-12T19:12:59.593Z,18.98
2018-06-12T19:15:27.919Z,18.96
2018-06-12T19:17:56.467Z,18.92
2018-06-12T19:20:24.664Z,18.90
2018-06-12T19:22:52.851Z,18.84
2018-06-12T19:25:21.278Z,18.83
2018-06-12T19:27:49.487Z,18.75
2018-06-12T19:30:17.734Z,18.61
2018-06-12T19:32:46.252Z,18.56
2018-06-12T19:35:14.565Z,18.43
2018-06-12T19:37:42.824Z,18.37
2018-06-12T19:40:11.027Z,18.28
2018-06-12T19:42:39.274Z,18.28
2018-06-12T19:45:07.495Z,18.24
2018-06-12T19:47:35.846Z,18.22
2018-06-12T19:50:04.053Z,18.17
2018-06-12T19:52:32.308Z,18.14
2018-06-12T19:55:00.566Z,18.08
2018-06-12T19:57:28.771Z,18.06
2018-06-12T19:59:57.037Z,18.08
2018-06-12T20:02:25.264Z,18.05
2018-06-12T20:04:53.469Z,17.98
2018-06-12T20:07:21.744Z,17.94
2018-06-12T20:09:49.970Z,17.91
2018-06-12T20:12:18.196Z,17.85
2018-06-12T20:14:46.544Z,17.89
2018-06-12T20:17:14.792Z,17.87
2018-06-12T20:19:43.033Z,17.88
2018-06-12T20:22:11.268Z,18.00
2018-06-12T20:24:40.849Z,18.03
2018-06-12T20:27:10.207Z,18.09
2018-06-12T20:29:38.786Z,18.02
2018-06-12T20:32:07.141Z,18.10
2018-06-12T20:34:35.432Z,18.08
2018-06-12T20:37:03.683Z,17.96
2018-06-12T20:39:31.953Z,17.93
2018-06-12T20:42:00.205Z,17.93
2018-06-12T20:44:28.444Z,17.88
2018-06-12T20:46:56.737Z,17.90
2018-06-12T20:49:24.977Z,17.88
2018-06-12T20:51:53.280Z,17.96
2018-06-12T20:54:21.944Z,17.89
2018-06-12T20:56:50.199Z,17.81
2018-06-12T20:59:18.581Z,17.77
2018-06-12T21:01:46.882Z,17.82
2018-06-12T21:04:15.141Z,17.77
2018-06-12T21:06:43.355Z,17.76
2018-06-12T21:09:11.736Z,17.77
2018-06-12T21:11:39.925Z,17.86
2018-06-12T21:14:08.135Z,17.83
2018-06-12T21:16:36.756Z,17.75
2018-06-12T21:19:05.001Z,17.76
2018-06-12T21:21:33.269Z,17.75
2018-06-12T21:24:01.893Z,17.68
2018-06-12T21:26:30.117Z,17.65
2018-06-12T21:28:58.316Z,17.63
2018-06-12T21:31:26.527Z,17.63
2018-06-12T21:33:54.906Z,17.70
2018-06-12T21:36:23.173Z,17.78
2018-06-12T21:38:51.415Z,17.72
2018-06-12T21:41:19.654Z,17.70
2018-06-12T21:43:48.032Z,17.76
2018-06-12T21:46:16.231Z,17.81
2018-06-12T21:48:44.464Z,17.75
2018-06-12T21:51:12.664Z,17.67
2018-06-12T21:53:40.926Z,17.67
2018-06-12T21:56:09.176Z,17.63
2018-06-12T21:58:37.420Z,17.67
2018-06-12T22:01:05.625Z,17.74
2018-06-12T22:03:34.503Z,17.80
2018-06-12T22:06:03.592Z,17.78
2018-06-12T22:08:31.825Z,17.81
2018-06-12T22:11:00.260Z,17.76
2018-06-12T22:13:28.962Z,17.73
2018-06-12T22:15:57.203Z,17.71
2018-06-12T22:18:25.808Z,17.79
2018-06-12T22:20:54.069Z,17.80
2018-06-12T22:23:22.448Z,17.87
2018-06-12T22:25:50.746Z,17.95
2018-06-12T22:28:18.940Z,18.03
2018-06-12T22:30:47.196Z,18.03
2018-06-12T22:33:15.470Z,18.04
2018-06-12T22:35:43.987Z,17.99
2018-06-12T22:38:12.250Z,17.90
2018-06-12T22:40:40.505Z,17.88
2018-06-12T22:43:08.766Z,17.89
2018-06-12T22:45:37.020Z,17.84
2018-06-12T22:48:05.392Z,17.75
2018-06-12T22:50:33.602Z,17.76
2018-06-12T22:53:02.000Z,17.74
2018-06-12T22:55:30.285Z,17.77
2018-06-12T22:57:58.539Z,17.78
2018-06-12T23:00:26.800Z,17.74
2018-06-12T23:02:55.169Z,17.68
2018-06-12T23:05:23.451Z,17.54
2018-06-12T23:07:51.720Z,17.57
2018-06-12T23:10:19.946Z,17.63
2018-06-12T23:12:48.184Z,17.66
2018-06-12T23:15:16.403Z,17.67
2018-06-12T23:17:44.607Z,17.67
2018-06-12T23:20:24.200Z,17.63
2018-06-12T23:22:52.494Z,17.60
2018-06-12T23:25:20.748Z,17.60
2018-06-12T23:27:48.937Z,17.58
2018-06-12T23:30:17.202Z,17.56
2018-06-12T23:32:45.442Z,17.53
2018-06-12T23:35:13.639Z,17.54
2018-06-12T23:37:41.868Z,17.58
2018-06-12T23:40:10.136Z,17.51
2018-06-12T23:42:38.307Z,17.36
2018-06-12T23:45:06.590Z,17.40
2018-06-12T23:47:35.055Z,17.38
2018-06-12T23:50:03.240Z,17.31
2018-06-12T23:52:31.514Z,17.27
2018-06-12T23:54:59.731Z,17.25
2018-06-12T23:57:28.207Z,17.28
2018-06-12T23:59:56.696Z,17.33
